createdAt,value
2023-12-11T05:00:11.784Z,100257.25
2023-12-11T05:03:14.468Z,100257.25
2023-12-11T05:06:16.773Z,100249.16
2023-12-11T05:09:19.332Z,100268.91
2023-12-11T05:12:21.770Z,100286.59
2023-12-11T05:15:24.255Z,100294.09
2023-12-11T05:18:26.456Z,100284.91
2023-12-11T05:21:28.965Z,100283.91
2023-12-11T05:24:31.245Z,100266.66
2023-12-11T05:27:34.277Z,100247.25
2023-12-11T05:30:36.593Z,100259.75
2023-12-11T05:33:39.216Z,100260.00
2023-12-11T05:36:41.547Z,100255.22
2023-12-11T05:39:54.034Z,100256.09
2023-12-11T05:43:00.276Z,100260.69
2023-12-11T05:46:02.834Z,100261.56
2023-12-11T05:49:05.125Z,100242.78
2023-12-11T05:52:09.977Z,100231.88
2023-12-11T05:55:13.049Z,100217.97
2023-12-11T05:58:15.755Z,100199.44
2023-12-11T06:01:18.255Z,100213.25
2023-12-11T06:04:20.865Z,100240.41
2023-12-11T06:07:23.148Z,100248.09
2023-12-11T06:10:25.706Z,100274.97
2023-12-11T06:13:27.945Z,100254.97
2023-12-11T06:16:30.751Z,100247.28
2023-12-11T06:19:33.041Z,100255.50
2023-12-11T06:22:35.518Z,100259.16
2023-12-11T06:25:37.953Z,100265.81
2023-12-11T06:28:40.757Z,100279.72
2023-12-11T06:31:42.944Z,100287.94
2023-12-11T06:34:45.597Z,100298.50
2023-12-11T06:37:47.844Z,100316.94
2023-12-11T06:40:50.400Z,100311.56
2023-12-11T06:43:54.893Z,100287.56
2023-12-11T06:46:58.090Z,100279.16
2023-12-11T06:50:01.726Z,100257.34
2023-12-11T06:53:04.378Z,100244.53
2023-12-11T06:56:06.943Z,100229.75
2023-12-11T06:59:09.453Z,100245.81
2023-12-11T07:02:11.794Z,100260.19
2023-12-11T07:05:14.939Z,100247.09
2023-12-11T07:08:17.329Z,100242.94
2023-12-11T07:11:20.558Z,100239.03
2023-12-11T07:14:24.621Z,100234.03
2023-12-11T07:17:27.416Z,100247.66
2023-12-11T07:20:29.709Z,100245.78
2023-12-11T07:23:32.213Z,100255.34
2023-12-11T07:26:34.622Z,100262.50
2023-12-11T07:29:37.281Z,100262.09
2023-12-11T07:32:39.514Z,100242.06
2023-12-11T07:35:42.089Z,100215.91
2023-12-11T07:38:44.348Z,100246.66
2023-12-11T07:41:47.209Z,100271.53
2023-12-11T07:44:49.411Z,100276.91
2023-12-11T07:47:52.095Z,100275.59
2023-12-11T07:50:54.466Z,100263.72
2023-12-11T07:53:59.831Z,100253.81
2023-12-11T07:57:02.223Z,100254.13
2023-12-11T08:00:05.926Z,100247.75
2023-12-11T08:03:09.760Z,100226.03
2023-12-11T08:06:13.110Z,100234.22
2023-12-11T08:09:15.909Z,100241.84
2023-12-11T08:12:18.722Z,100236.87
2023-12-11T08:15:22.203Z,100226.87
2023-12-11T08:18:24.837Z,100205.59
2023-12-11T08:21:27.100Z,100217.00
2023-12-11T08:24:29.700Z,100191.12
2023-12-11T08:27:32.153Z,100186.31
2023-12-11T08:30:35.328Z,100175.47
2023-12-11T08:33:38.119Z,100155.50
2023-12-11T08:36:41.063Z,100148.50
2023-12-11T08:39:43.333Z,100139.19
2023-12-11T08:42:46.175Z,100137.59
2023-12-11T08:45:49.188Z,100136.28
2023-12-11T08:48:52.460Z,100154.78
2023-12-11T08:51:55.340Z,100163.03
2023-12-11T08:54:57.899Z,100169.53
2023-12-11T08:58:00.322Z,100180.34
2023-12-11T09:01:04.682Z,100180.03
2023-12-11T09:04:07.604Z,100181.16
2023-12-11T09:07:11.036Z,100194.34
2023-12-11T09:10:13.422Z,100172.75
2023-12-11T09:13:16.248Z,100153.75
2023-12-11T09:16:18.652Z,100140.59
2023-12-11T09:19:31.793Z,100142.03
2023-12-11T09:22:42.766Z,100149.22
2023-12-11T09:25:45.621Z,100145.78
2023-12-11T09:28:51.801Z,100155.75
2023-12-11T09:31:55.145Z,100159.28
2023-12-11T09:34:57.800Z,100154.59
2023-12-11T09:38:00.460Z,100144.69
2023-12-11T09:41:04.894Z,100138.53
2023-12-11T09:44:09.490Z,100135.97
2023-12-11T09:47:21.355Z,100136.16
2023-12-11T09:50:25.100Z,100137.53
2023-12-11T09:53:31.297Z,100135.37
2023-12-11T09:56:34.168Z,100131.66
2023-12-11T09:59:38.352Z,100139.41
2023-12-11T10:02:42.154Z,100141.72
2023-12-11T10:05:44.852Z,100141.28
2023-12-11T10:08:54.002Z,100144.22
2023-12-11T10:12:01.863Z,100142.63
2023-12-11T10:15:04.849Z,100133.56
2023-12-11T10:18:13.773Z,100126.31
2023-12-11T10:21:16.457Z,100112.38
2023-12-11T10:24:18.996Z,100106.34
2023-12-11T10:27:25.917Z,100113.41
2023-12-11T10:30:28.848Z,100110.56
2023-12-11T10:33:32.719Z,100110.22
2023-12-11T10:36:35.482Z,100107.63
2023-12-11T10:39:38.298Z,100089.44
2023-12-11T10:42:41.571Z,100090.72
2023-12-11T10:45:46.385Z,100087.50
2023-12-11T10:48:50.130Z,100079.44
2023-12-11T10:51:52.533Z,100062.94
2023-12-11T10:54:56.336Z,100054.66
2023-12-11T10:57:59.299Z,100052.28
2023-12-11T11:01:03.029Z,100072.47
2023-12-11T11:04:07.441Z,100091.44
2023-12-11T11:07:21.579Z,100083.88
2023-12-11T11:10:31.160Z,100085.31
2023-12-11T11:14:01.752Z,100072.59
2023-12-11T11:17:04.341Z,100060.63
2023-12-11T11:20:20.454Z,100060.59
2023-12-11T11:23:27.694Z,100053.69
2023-12-11T11:26:37.602Z,100039.25
2023-12-11T11:29:44.914Z,100025.16
2023-12-11T11:32:57.995Z,100022.22
2023-12-11T11:36:05.903Z,100004.62
2023-12-11T11:39:08.371Z,99993.69
2023-12-11T11:42:11.118Z,99989.44
2023-12-11T11:45:14.846Z,99982.22
2023-12-11T11:48:18.296Z,99969.87
2023-12-11T11:51:23.024Z,99981.91
2023-12-11T11:54:29.544Z,99988.31
2023-12-11T11:57:33.590Z,99990.75
2023-12-11T12:00:48.512Z,99971.50
2023-12-11T12:03:54.557Z,99991.28
2023-12-11T12:07:02.701Z,99975.53
2023-12-11T12:10:08.929Z,99976.03
2023-12-11T12:13:12.676Z,99981.16
2023-12-11T12:16:30.775Z,100011.00
2023-12-11T12:19:35.878Z,100017.44
2023-12-11T12:23:05.054Z,100022.50
2023-12-11T12:26:10.957Z,100035.03
2023-12-11T12:29:15.625Z,100028.09
2023-12-11T12:32:18.452Z,100010.78
2023-12-11T12:35:28.829Z,100002.50
2023-12-11T12:38:34.655Z,100004.91
2023-12-11T12:41:44.525Z,100001.69
2023-12-11T12:44:49.257Z,100008.38
2023-12-11T12:47:51.874Z,99999.59
2023-12-11T12:51:06.971Z,99994.50
2023-12-11T12:54:15.256Z,99999.06
2023-12-11T12:57:21.278Z,99996.13
2023-12-11T13:00:24.358Z,99998.53
2023-12-11T13:03:26.898Z,99976.91
2023-12-11T13:06:29.642Z,99967.22
2023-12-11T13:09:33.528Z,99966.16
2023-12-11T13:12:36.765Z,99966.91
2023-12-11T13:15:41.989Z,99974.97
2023-12-11T13:18:44.600Z,99988.59
2023-12-11T13:21:47.157Z,99983.81
2023-12-11T13:24:49.716Z,99997.16
2023-12-11T13:27:51.897Z,100009.72
2023-12-11T13:30:54.565Z,100017.44
2023-12-11T13:33:57.031Z,100012.34
2023-12-11T13:36:59.921Z,100019.81
2023-12-11T13:40:02.577Z,100005.16
2023-12-11T13:43:05.351Z,100000.91
2023-12-11T13:46:08.369Z,100024.09
2023-12-11T13:49:11.149Z,100015.31
2023-12-11T13:52:13.356Z,100011.56
2023-12-11T13:55:15.922Z,100007.59
2023-12-11T13:58:18.220Z,100021.16
2023-12-11T14:01:21.117Z,100004.62
2023-12-11T14:04:26.848Z,100002.75
2023-12-11T14:07:29.445Z,100004.38
2023-12-11T14:10:34.589Z,99997.97
2023-12-11T14:13:37.072Z,99999.53
2023-12-11T14:16:39.725Z,99988.38
2023-12-11T14:19:42.121Z,99984.91
2023-12-11T14:22:44.714Z,99987.31
2023-12-11T14:25:47.598Z,99990.53
2023-12-11T14:28:50.225Z,100003.56
2023-12-11T14:31:52.443Z,100000.66
2023-12-11T14:34:54.991Z,99996.34
2023-12-11T14:37:57.759Z,99995.56
2023-12-11T14:41:00.294Z,99997.69
2023-12-11T14:44:02.477Z,99979.84
2023-12-11T14:47:06.944Z,99963.84
2023-12-11T14:50:11.259Z,99977.16
2023-12-11T14:53:13.703Z,99984.13
2023-12-11T14:56:15.828Z,99973.72
2023-12-11T14:59:18.594Z,99955.34
2023-12-11T15:02:20.858Z,99947.59
2023-12-11T15:05:23.379Z,99949.97
2023-12-11T15:08:27.224Z,99960.63
2023-12-11T15:11:34.400Z,99940.06
2023-12-11T15:14:37.291Z,99934.28
2023-12-11T15:17:39.758Z,99963.00
2023-12-11T15:20:41.973Z,99969.63
2023-12-11T15:23:45.274Z,99970.94
2023-12-11T15:26:47.473Z,99964.34
2023-12-11T15:29:49.992Z,99969.13
2023-12-11T15:32:52.263Z,99965.88
2023-12-11T15:35:54.735Z,99964.63
2023-12-11T15:38:56.937Z,99979.78
2023-12-11T15:42:00.657Z,99970.25
2023-12-11T15:45:03.804Z,99974.75
2023-12-11T15:48:06.570Z,99962.00
2023-12-11T15:51:19.154Z,99965.72
2023-12-11T15:54:21.633Z,99966.75
2023-12-11T15:57:23.957Z,99971.56
2023-12-11T16:00:26.380Z,99960.38
2023-12-11T16:03:28.954Z,99957.72
2023-12-11T16:06:32.222Z,99983.56
2023-12-11T16:09:34.981Z,99975.31
2023-12-11T16:12:37.205Z,99962.25
2023-12-11T16:15:39.663Z,99975.56
2023-12-11T16:18:42.565Z,99961.97
2023-12-11T16:21:45.319Z,99956.09
2023-12-11T16:24:47.617Z,99956.09
2023-12-11T16:27:50.127Z,99958.78
2023-12-11T16:30:52.375Z,99959.56
